createdAt,value
2023-09-23T00:00:03.325Z,614.70
2023-09-23T00:00:13.320Z,613.67
2023-09-23T00:00:23.316Z,613.98
2023-09-23T00:00:33.305Z,613.98
2023-09-23T00:00:53.306Z,613.76
2023-09-23T00:01:03.307Z,613.53
2023-09-23T00:01:13.320Z,613.26
2023-09-23T00:01:23.340Z,613.34
2023-09-23T00:01:33.385Z,613.59
2023-09-23T00:01:43.396Z,613.80
2023-09-23T00:01:53.358Z,613.39
2023-09-23T00:02:03.357Z,613.85
2023-09-23T00:02:13.396Z,613.92
2023-09-23T00:02:33.411Z,614.02
2023-09-23T00:02:43.396Z,613.22
2023-09-23T00:02:53.465Z,613.58
2023-09-23T00:03:03.447Z,613.53
2023-09-23T00:03:13.396Z,613.39
2023-09-23T00:03:23.442Z,613.61
2023-09-23T00:03:33.442Z,613.66
2023-09-23T00:03:43.393Z,614.18
2023-09-23T00:03:53.443Z,613.47
2023-09-23T00:04:03.456Z,614.07
2023-09-23T00:04:13.386Z,613.74
2023-09-23T00:04:23.404Z,614.23
2023-09-23T00:04:33.401Z,613.46
2023-09-23T00:04:43.481Z,613.30
2023-09-23T00:04:53.448Z,613.06
2023-09-23T00:05:03.390Z,613.54
2023-09-23T00:05:13.649Z,613.09
2023-09-23T00:05:23.408Z,613.52
2023-09-23T00:05:43.370Z,613.29
2023-09-23T00:05:53.323Z,613.03
2023-09-23T00:06:03.327Z,612.95
2023-09-23T00:06:13.337Z,612.90
2023-09-23T00:06:23.338Z,612.89
2023-09-23T00:06:33.324Z,612.66
2023-09-23T00:06:43.417Z,612.60
2023-09-23T00:06:53.330Z,612.78
2023-09-23T00:07:03.322Z,612.75
2023-09-23T00:07:13.364Z,612.67
2023-09-23T00:07:33.372Z,612.69
2023-09-23T00:07:43.383Z,612.80
2023-09-23T00:07:53.348Z,612.67
2023-09-23T00:08:03.439Z,612.63
2023-09-23T00:08:13.400Z,612.35
2023-09-23T00:08:23.331Z,612.21
2023-09-23T00:08:33.332Z,612.22
2023-09-23T00:08:53.335Z,612.40
2023-09-23T00:09:03.336Z,612.18
2023-09-23T00:09:13.337Z,612.53
2023-09-23T00:09:23.346Z,612.68
2023-09-23T00:09:33.332Z,612.42
2023-09-23T00:09:43.335Z,613.47
2023-09-23T00:09:53.340Z,612.32
2023-09-23T00:10:03.345Z,612.77
2023-09-23T00:10:13.337Z,613.22
2023-09-23T00:10:23.345Z,612.80
2023-09-23T00:10:33.357Z,613.61
2023-09-23T00:10:43.388Z,612.78
2023-09-23T00:10:53.345Z,612.40
2023-09-23T00:11:03.468Z,612.69
2023-09-23T00:11:13.390Z,612.61
2023-09-23T00:11:23.363Z,613.17
2023-09-23T00:11:33.346Z,612.55
2023-09-23T00:11:43.372Z,612.54
2023-09-23T00:11:53.342Z,612.27
2023-09-23T00:12:03.341Z,612.55
2023-09-23T00:12:23.346Z,612.67
2023-09-23T00:12:33.359Z,612.41
2023-09-23T00:12:43.354Z,612.30
2023-09-23T00:12:53.351Z,612.48
2023-09-23T00:13:03.365Z,612.80
2023-09-23T00:13:13.369Z,612.89
2023-09-23T00:13:23.354Z,612.55
2023-09-23T00:13:33.397Z,613.15
2023-09-23T00:13:43.402Z,612.43
2023-09-23T00:13:53.389Z,612.55
2023-09-23T00:14:03.404Z,612.62
2023-09-23T00:14:13.383Z,612.44
2023-09-23T00:14:23.367Z,612.66
2023-09-23T00:14:43.354Z,613.37
2023-09-23T00:14:53.361Z,612.84
2023-09-23T00:15:03.358Z,612.45
2023-09-23T00:15:13.409Z,612.12
2023-09-23T00:15:23.351Z,612.93
2023-09-23T00:15:33.353Z,613.14
2023-09-23T00:15:43.356Z,613.19
2023-09-23T00:15:53.380Z,613.04
2023-09-23T00:16:03.367Z,612.57
2023-09-23T00:16:13.445Z,612.43
2023-09-23T00:16:23.453Z,612.17
2023-09-23T00:16:33.437Z,612.57
2023-09-23T00:16:43.409Z,612.36
2023-09-23T00:16:53.427Z,613.35
2023-09-23T00:17:03.371Z,613.07
2023-09-23T00:17:13.408Z,612.83
2023-09-23T00:17:33.412Z,612.28
2023-09-23T00:17:43.384Z,612.50
2023-09-23T00:17:53.386Z,612.11
2023-09-23T00:18:03.498Z,612.00
2023-09-23T00:18:13.430Z,612.22
2023-09-23T00:18:23.372Z,612.57
2023-09-23T00:18:33.382Z,612.39
2023-09-23T00:18:43.524Z,612.40
2023-09-23T00:18:53.374Z,612.85
2023-09-23T00:19:03.391Z,612.35
2023-09-23T00:19:13.402Z,612.94
2023-09-23T00:19:23.374Z,612.36
2023-09-23T00:19:33.374Z,612.49
2023-09-23T00:19:43.433Z,612.40
2023-09-23T00:19:53.386Z,612.35
2023-09-23T00:20:03.469Z,611.59
2023-09-23T00:20:23.389Z,612.19
2023-09-23T00:20:33.387Z,612.47
2023-09-23T00:20:43.379Z,612.30
2023-09-23T00:20:53.385Z,612.09
2023-09-23T00:21:03.414Z,612.03
2023-09-23T00:21:13.384Z,612.45
2023-09-23T00:21:23.385Z,611.74
2023-09-23T00:21:33.395Z,612.30
2023-09-23T00:21:43.387Z,612.11
2023-09-23T00:21:53.395Z,612.14
2023-09-23T00:22:03.410Z,612.06
2023-09-23T00:22:13.387Z,612.35
2023-09-23T00:22:23.387Z,612.42
2023-09-23T00:22:33.388Z,611.98
2023-09-23T00:22:43.472Z,613.08
2023-09-23T00:22:53.461Z,612.21
2023-09-23T00:23:03.467Z,612.76
2023-09-23T00:23:23.399Z,612.16
2023-09-23T00:23:33.395Z,612.03
2023-09-23T00:23:43.391Z,612.08
2023-09-23T00:23:53.392Z,612.02
2023-09-23T00:24:03.404Z,611.88
2023-09-23T00:24:13.402Z,612.14
2023-09-23T00:24:23.393Z,611.83
2023-09-23T00:24:33.398Z,612.01
2023-09-23T00:24:43.391Z,612.19
2023-09-23T00:24:53.401Z,611.88
2023-09-23T00:25:03.412Z,611.81
2023-09-23T00:25:23.403Z,612.17
2023-09-23T00:25:33.396Z,611.96
2023-09-23T00:25:43.447Z,612.11
2023-09-23T00:25:53.434Z,612.16
2023-09-23T00:26:03.464Z,611.81
2023-09-23T00:26:13.416Z,612.19
2023-09-23T00:26:23.399Z,612.07
2023-09-23T00:26:33.408Z,612.04
2023-09-23T00:26:43.440Z,612.26
2023-09-23T00:27:03.404Z,612.00
2023-09-23T00:27:13.421Z,612.07
2023-09-23T00:27:23.419Z,611.99
2023-09-23T00:27:33.412Z,612.08
2023-09-23T00:27:43.423Z,611.87
2023-09-23T00:27:53.406Z,611.97
2023-09-23T00:28:03.418Z,612.01
2023-09-23T00:28:13.407Z,612.04
2023-09-23T00:28:23.434Z,611.97
2023-09-23T00:28:33.414Z,612.04
2023-09-23T00:28:43.617Z,611.88
2023-09-23T00:28:53.436Z,611.70
2023-09-23T00:29:03.423Z,611.66
2023-09-23T00:29:13.421Z,611.38
2023-09-23T00:29:23.439Z,612.51
2023-09-23T00:29:33.419Z,611.56
2023-09-23T00:29:43.414Z,611.35
2023-09-23T00:29:53.427Z,611.40
2023-09-23T00:30:03.415Z,611.54
2023-09-23T00:30:13.419Z,611.35
2023-09-23T00:30:23.421Z,611.31
2023-09-23T00:30:33.484Z,611.21
2023-09-23T00:30:43.469Z,611.01
2023-09-23T00:30:53.475Z,611.09
2023-09-23T00:31:03.457Z,610.91
2023-09-23T00:31:13.478Z,611.12
2023-09-23T00:31:23.425Z,611.28
2023-09-23T00:31:33.430Z,611.06
2023-09-23T00:31:43.495Z,611.46
2023-09-23T00:31:53.438Z,611.02
2023-09-23T00:32:03.486Z,610.80
2023-09-23T00:32:13.453Z,611.68
2023-09-23T00:32:23.433Z,611.62
2023-09-23T00:32:43.660Z,611.16
2023-09-23T00:32:53.475Z,611.24
2023-09-23T00:33:03.455Z,611.27
2023-09-23T00:33:13.443Z,610.93
2023-09-23T00:33:23.442Z,611.60
2023-09-23T00:33:33.433Z,611.70
2023-09-23T00:33:43.451Z,611.36
2023-09-23T00:33:53.435Z,611.75
2023-09-23T00:34:03.443Z,611.52
2023-09-23T00:34:13.440Z,611.15
2023-09-23T00:34:23.432Z,611.18
2023-09-23T00:34:33.452Z,611.15
2023-09-23T00:34:43.505Z,611.62
2023-09-23T00:34:53.452Z,611.98
2023-09-23T00:35:03.583Z,611.46
2023-09-23T00:35:13.689Z,611.47
2023-09-23T00:35:23.450Z,611.33
2023-09-23T00:35:33.473Z,611.50
2023-09-23T00:35:43.447Z,611.38
2023-09-23T00:35:53.460Z,611.57
2023-09-23T00:36:03.469Z,611.69
2023-09-23T00:36:23.446Z,611.80
2023-09-23T00:36:33.450Z,611.99
2023-09-23T00:36:43.438Z,611.86
2023-09-23T00:36:53.441Z,611.78
2023-09-23T00:37:03.446Z,611.91
2023-09-23T00:37:13.452Z,612.19
2023-09-23T00:37:23.441Z,611.85
2023-09-23T00:37:33.460Z,611.79
2023-09-23T00:37:43.528Z,611.92
2023-09-23T00:37:53.463Z,611.97
2023-09-23T00:38:03.557Z,613.10
2023-09-23T00:38:23.446Z,612.08
2023-09-23T00:38:33.484Z,611.86
2023-09-23T00:38:43.479Z,612.09
2023-09-23T00:38:53.448Z,611.97
2023-09-23T00:39:03.449Z,611.88
2023-09-23T00:39:13.450Z,611.89
2023-09-23T00:39:23.463Z,611.83
2023-09-23T00:39:33.449Z,611.58
2023-09-23T00:39:43.523Z,611.73
2023-09-23T00:39:53.452Z,611.46
2023-09-23T00:40:03.454Z,611.27
2023-09-23T00:40:13.452Z,611.37
2023-09-23T00:40:33.548Z,611.62
2023-09-23T00:40:43.520Z,611.84
2023-09-23T00:40:53.496Z,612.29
2023-09-23T00:41:03.499Z,611.47
2023-09-23T00:41:13.491Z,611.59
2023-09-23T00:41:23.454Z,611.49
2023-09-23T00:41:33.495Z,611.93
2023-09-23T00:41:43.477Z,611.78
2023-09-23T00:41:53.481Z,611.80
2023-09-23T00:42:03.459Z,611.72
2023-09-23T00:42:13.469Z,611.38
2023-09-23T00:42:23.461Z,611.86
2023-09-23T00:42:43.464Z,611.50
2023-09-23T00:42:53.468Z,611.71
2023-09-23T00:43:03.486Z,611.61
2023-09-23T00:43:13.502Z,611.71
2023-09-23T00:43:23.469Z,611.29
2023-09-23T00:43:33.469Z,611.36
2023-09-23T00:43:43.533Z,611.37
2023-09-23T00:43:53.507Z,611.25
2023-09-23T00:44:03.474Z,611.29
2023-09-23T00:44:23.465Z,610.99
2023-09-23T00:44:33.477Z,611.33
2023-09-23T00:44:43.463Z,611.31
2023-09-23T00:44:53.469Z,611.23
2023-09-23T00:45:03.469Z,611.09
2023-09-23T00:45:13.478Z,610.98
2023-09-23T00:45:23.479Z,611.21
2023-09-23T00:45:33.573Z,611.22
2023-09-23T00:45:43.504Z,611.01
2023-09-23T00:45:53.495Z,610.99
2023-09-23T00:46:03.498Z,611.10
2023-09-23T00:46:13.481Z,611.16
2023-09-23T00:46:23.499Z,611.01
2023-09-23T00:46:33.492Z,611.14
2023-09-23T00:46:43.529Z,611.02
2023-09-23T00:46:53.543Z,610.87
2023-09-23T00:47:03.497Z,610.73
2023-09-23T00:47:13.531Z,611.36
2023-09-23T00:47:23.476Z,610.94
2023-09-23T00:47:43.557Z,610.84
2023-09-23T00:47:53.555Z,611.11
2023-09-23T00:48:03.575Z,610.87
2023-09-23T00:48:13.521Z,611.10
2023-09-23T00:48:23.568Z,611.11
2023-09-23T00:48:33.489Z,611.00
2023-09-23T00:48:43.512Z,611.02
2023-09-23T00:48:53.498Z,610.83
2023-09-23T00:49:03.491Z,610.77
2023-09-23T00:49:23.503Z,610.87
2023-09-23T00:49:33.487Z,611.03
2023-09-23T00:49:43.544Z,611.06
2023-09-23T00:49:53.535Z,611.56
2023-09-23T00:50:03.544Z,611.07
2023-09-23T00:50:13.540Z,610.87
2023-09-23T00:50:23.518Z,611.20
2023-09-23T00:50:33.496Z,610.85
2023-09-23T00:50:43.492Z,610.85
2023-09-23T00:51:03.502Z,610.55
2023-09-23T00:51:13.519Z,610.62
2023-09-23T00:51:23.506Z,610.88
2023-09-23T00:51:33.516Z,610.82
2023-09-23T00:51:43.498Z,610.67
2023-09-23T00:51:53.498Z,610.36
2023-09-23T00:52:03.512Z,610.78
2023-09-23T00:52:23.543Z,610.51
2023-09-23T00:52:33.543Z,610.62
2023-09-23T00:52:43.607Z,610.36
2023-09-23T00:52:53.924Z,610.36
2023-09-23T00:53:03.571Z,610.30
2023-09-23T00:53:13.603Z,610.26
2023-09-23T00:53:23.601Z,610.28
2023-09-23T00:53:33.533Z,610.50
2023-09-23T00:53:43.661Z,610.68
2023-09-23T00:53:53.504Z,610.44
2023-09-23T00:54:03.516Z,610.33
2023-09-23T00:54:23.510Z,610.56
2023-09-23T00:54:33.520Z,610.47
2023-09-23T00:54:43.512Z,610.48
2023-09-23T00:54:53.508Z,610.50
2023-09-23T00:55:03.509Z,609.99
2023-09-23T00:55:13.507Z,610.46
2023-09-23T00:55:23.546Z,610.96
2023-09-23T00:55:33.518Z,611.01
2023-09-23T00:55:43.554Z,610.77
2023-09-23T00:55:53.763Z,610.56
2023-09-23T00:56:03.570Z,610.46
2023-09-23T00:56:13.643Z,610.44
2023-09-23T00:56:23.522Z,610.35
2023-09-23T00:56:33.528Z,610.61
2023-09-23T00:56:43.517Z,610.71
2023-09-23T00:57:03.517Z,610.33
2023-09-23T00:57:13.533Z,610.32
2023-09-23T00:57:23.559Z,610.34
2023-09-23T00:57:33.519Z,610.35
2023-09-23T00:57:43.534Z,610.54
2023-09-23T00:57:53.516Z,610.33
2023-09-23T00:58:03.524Z,610.54
2023-09-23T00:58:23.527Z,611.11
2023-09-23T00:58:33.529Z,610.99
2023-09-23T00:58:44.095Z,610.77
2023-09-23T00:58:53.593Z,610.66
2023-09-23T00:59:03.554Z,610.66
2023-09-23T00:59:13.565Z,611.02
2023-09-23T00:59:23.567Z,610.65
2023-09-23T00:59:33.527Z,610.63
2023-09-23T00:59:53.533Z,611.10
2023-09-23T01:00:03.535Z,611.26
2023-09-23T01:00:13.528Z,611.09
2023-09-23T01:00:23.544Z,611.23
2023-09-23T01:00:33.535Z,611.10
2023-09-23T01:00:43.572Z,611.31
2023-09-23T01:00:53.532Z,611.17
2023-09-23T01:01:03.530Z,611.13
2023-09-23T01:01:13.543Z,610.79
2023-09-23T01:01:23.580Z,611.20
2023-09-23T01:01:33.555Z,611.07
2023-09-23T01:01:43.645Z,611.06
2023-09-23T01:01:53.658Z,611.05
2023-09-23T01:02:03.609Z,610.83
2023-09-23T01:02:13.593Z,611.08
2023-09-23T01:02:23.624Z,611.16
2023-09-23T01:02:43.677Z,611.03
2023-09-23T01:02:53.616Z,610.67
2023-09-23T01:03:03.736Z,611.25
2023-09-23T01:03:13.678Z,610.82
2023-09-23T01:03:23.702Z,610.86
2023-09-23T01:03:33.654Z,610.71
2023-09-23T01:03:43.695Z,610.91
2023-09-23T01:03:53.630Z,610.94
2023-09-23T01:04:13.636Z,610.78
2023-09-23T01:04:23.544Z,610.75
2023-09-23T01:04:33.546Z,610.88
2023-09-23T01:04:43.665Z,610.96
2023-09-23T01:04:53.616Z,611.06
2023-09-23T01:05:03.574Z,610.90
2023-09-23T01:05:13.574Z,610.69
2023-09-23T01:05:23.546Z,610.76
2023-09-23T01:05:33.558Z,611.41
2023-09-23T01:05:43.563Z,611.17
2023-09-23T01:05:53.549Z,610.90
2023-09-23T01:06:03.553Z,610.82
2023-09-23T01:06:13.552Z,610.69
2023-09-23T01:06:23.583Z,610.51
2023-09-23T01:06:33.570Z,610.49
2023-09-23T01:06:43.551Z,610.68
2023-09-23T01:06:53.562Z,610.57
2023-09-23T01:07:03.562Z,610.75
2023-09-23T01:07:13.560Z,611.00
2023-09-23T01:07:23.560Z,611.21
2023-09-23T01:07:43.651Z,610.94
2023-09-23T01:07:53.593Z,611.06
2023-09-23T01:08:03.585Z,610.83
2023-09-23T01:08:13.627Z,611.05
2023-09-23T01:08:23.574Z,610.94
2023-09-23T01:08:33.564Z,610.85
2023-09-23T01:08:43.635Z,610.79
2023-09-23T01:08:53.565Z,610.85
2023-09-23T01:09:03.570Z,611.05
2023-09-23T01:09:13.573Z,611.05
2023-09-23T01:09:33.569Z,610.91
2023-09-23T01:09:43.576Z,610.91
2023-09-23T01:09:53.569Z,611.09
2023-09-23T01:10:03.575Z,611.30
2023-09-23T01:10:13.594Z,611.12
2023-09-23T01:10:23.569Z,611.17
2023-09-23T01:10:33.576Z,611.22
2023-09-23T01:10:53.694Z,611.30
2023-09-23T01:11:03.647Z,611.32
2023-09-23T01:11:13.581Z,611.26
2023-09-23T01:11:23.626Z,611.10
2023-09-23T01:11:33.590Z,611.10
2023-09-23T01:11:43.577Z,610.63
2023-09-23T01:11:53.596Z,610.99
2023-09-23T01:12:13.593Z,611.73
2023-09-23T01:12:23.583Z,611.11
2023-09-23T01:12:33.584Z,611.10
2023-09-23T01:12:43.591Z,611.26
2023-09-23T01:12:53.584Z,612.21
2023-09-23T01:13:03.595Z,611.11
2023-09-23T01:13:23.598Z,610.75
2023-09-23T01:13:33.589Z,610.79
2023-09-23T01:13:43.681Z,611.02
2023-09-23T01:13:53.610Z,610.74
2023-09-23T01:14:03.610Z,611.29
2023-09-23T01:14:13.621Z,611.15
2023-09-23T01:14:23.594Z,610.98
2023-09-23T01:14:33.588Z,610.91
2023-09-23T01:14:43.590Z,611.20
2023-09-23T01:14:53.592Z,611.03
2023-09-23T01:15:03.609Z,611.14
2023-09-23T01:15:13.593Z,610.84
2023-09-23T01:15:23.599Z,610.56
2023-09-23T01:15:33.648Z,610.55
2023-09-23T01:15:43.648Z,610.47
2023-09-23T01:15:53.629Z,610.55
2023-09-23T01:16:13.638Z,610.27
2023-09-23T01:16:24.149Z,610.49
2023-09-23T01:16:33.671Z,610.52
2023-09-23T01:16:43.649Z,610.85
2023-09-23T01:16:53.641Z,610.60
2023-09-23T01:17:03.618Z,611.08
2023-09-23T01:17:13.632Z,610.66
2023-09-23T01:17:23.598Z,610.83
2023-09-23T01:17:43.652Z,610.89
2023-09-23T01:17:53.650Z,610.64
2023-09-23T01:18:03.652Z,610.06
2023-09-23T01:18:13.612Z,610.38
2023-09-23T01:18:23.610Z,610.87
2023-09-23T01:18:33.611Z,610.95
2023-09-23T01:18:43.605Z,611.30
2023-09-23T01:18:53.604Z,610.83
2023-09-23T01:19:03.630Z,610.68
2023-09-23T01:19:13.609Z,610.59
2023-09-23T01:19:23.609Z,610.44
2023-09-23T01:19:33.612Z,610.66
2023-09-23T01:19:43.637Z,610.55
2023-09-23T01:19:53.681Z,610.55
2023-09-23T01:20:13.649Z,610.59
2023-09-23T01:20:23.613Z,610.58
2023-09-23T01:20:33.628Z,611.17
2023-09-23T01:20:43.637Z,611.11
2023-09-23T01:20:53.614Z,611.04
2023-09-23T01:21:03.614Z,610.83
2023-09-23T01:21:13.614Z,610.67
2023-09-23T01:21:23.625Z,610.73
2023-09-23T01:21:33.647Z,610.75
2023-09-23T01:21:43.622Z,610.51
2023-09-23T01:21:53.619Z,610.36
2023-09-23T01:22:03.627Z,610.29
2023-09-23T01:22:13.620Z,611.20
2023-09-23T01:22:23.621Z,610.44
2023-09-23T01:22:33.622Z,610.50
2023-09-23T01:22:43.689Z,610.62
2023-09-23T01:22:53.660Z,610.80
2023-09-23T01:23:03.719Z,610.90
2023-09-23T01:23:23.633Z,610.83
2023-09-23T01:23:33.635Z,610.24
2023-09-23T01:23:43.664Z,610.15
2023-09-23T01:23:53.633Z,610.55
2023-09-23T01:24:03.644Z,610.71
2023-09-23T01:24:13.632Z,610.25
2023-09-23T01:24:23.639Z,611.05
2023-09-23T01:24:43.669Z,610.56
2023-09-23T01:24:53.639Z,610.68
2023-09-23T01:25:03.646Z,610.48
2023-09-23T01:25:13.640Z,610.76
2023-09-23T01:25:23.645Z,610.64
2023-09-23T01:25:33.643Z,611.01
2023-09-23T01:25:43.712Z,610.96
2023-09-23T01:25:53.680Z,610.71
2023-09-23T01:26:03.688Z,610.85
2023-09-23T01:26:13.706Z,610.64
2023-09-23T01:26:23.645Z,610.21
2023-09-23T01:26:33.659Z,610.17
2023-09-23T01:26:43.673Z,609.94
2023-09-23T01:26:53.645Z,609.98
2023-09-23T01:27:03.648Z,610.02
2023-09-23T01:27:13.648Z,610.05
2023-09-23T01:27:23.649Z,609.66
2023-09-23T01:27:33.662Z,609.94
2023-09-23T01:27:43.693Z,610.15
2023-09-23T01:27:53.649Z,610.04
2023-09-23T01:28:03.650Z,610.01
2023-09-23T01:28:13.655Z,609.84
2023-09-23T01:28:23.657Z,609.74
2023-09-23T01:28:33.701Z,610.03
2023-09-23T01:28:43.770Z,609.94
2023-09-23T01:28:53.693Z,609.46
2023-09-23T01:29:03.711Z,609.80
2023-09-23T01:29:13.687Z,609.66
2023-09-23T01:29:23.703Z,609.65
2023-09-23T01:29:33.664Z,610.45
2023-09-23T01:29:53.661Z,610.04
2023-09-23T01:30:03.651Z,610.01
2023-09-23T01:30:14.535Z,609.83
2023-09-23T01:30:23.658Z,610.07
2023-09-23T01:30:33.667Z,610.24
2023-09-23T01:30:43.670Z,610.35
2023-09-23T01:30:53.665Z,610.15
2023-09-23T01:31:13.748Z,610.32
2023-09-23T01:31:23.912Z,609.97
2023-09-23T01:31:33.721Z,610.30
2023-09-23T01:31:43.826Z,610.17
2023-09-23T01:31:53.861Z,610.28
2023-09-23T01:32:03.692Z,610.63
2023-09-23T01:32:13.690Z,610.65
2023-09-23T01:32:23.702Z,611.02
2023-09-23T01:32:33.730Z,610.56
2023-09-23T01:32:43.716Z,610.21
2023-09-23T01:32:53.828Z,610.48
2023-09-23T01:33:03.691Z,610.27
2023-09-23T01:33:13.706Z,610.12
2023-09-23T01:33:23.731Z,610.75
2023-09-23T01:33:33.716Z,610.43
2023-09-23T01:33:43.781Z,610.28
2023-09-23T01:33:53.688Z,610.12
2023-09-23T01:34:03.742Z,610.16
2023-09-23T01:34:13.676Z,610.29
2023-09-23T01:34:23.679Z,610.15
2023-09-23T01:34:33.681Z,609.97
2023-09-23T01:34:43.744Z,610.22
2023-09-23T01:34:53.711Z,610.06
2023-09-23T01:35:03.754Z,609.71
2023-09-23T01:35:13.699Z,609.85
2023-09-23T01:35:23.682Z,609.76
2023-09-23T01:35:33.688Z,610.12
2023-09-23T01:35:43.681Z,609.55
2023-09-23T01:35:53.692Z,609.67
2023-09-23T01:36:03.758Z,610.17
2023-09-23T01:36:13.685Z,609.99
2023-09-23T01:36:23.688Z,609.58
2023-09-23T01:36:33.689Z,609.43
2023-09-23T01:36:43.707Z,609.25
2023-09-23T01:36:53.689Z,609.36
2023-09-23T01:37:13.690Z,610.58
2023-09-23T01:37:23.686Z,609.97
2023-09-23T01:37:33.690Z,609.74
2023-09-23T01:37:43.787Z,609.90
2023-09-23T01:37:53.718Z,609.79
2023-09-23T01:38:03.750Z,609.77
2023-09-23T01:38:13.751Z,609.43
2023-09-23T01:38:23.705Z,609.95
2023-09-23T01:38:33.720Z,609.44
2023-09-23T01:38:44.135Z,609.39
2023-09-23T01:38:53.701Z,609.21
2023-09-23T01:39:03.700Z,609.30
2023-09-23T01:39:13.700Z,609.29
2023-09-23T01:39:23.703Z,609.50
2023-09-23T01:39:33.696Z,609.32
2023-09-23T01:39:53.713Z,609.31
2023-09-23T01:40:03.709Z,608.81
2023-09-23T01:40:13.713Z,608.88
2023-09-23T01:40:23.710Z,608.86
2023-09-23T01:40:33.707Z,609.81
2023-09-23T01:40:43.733Z,609.31
2023-09-23T01:40:53.739Z,609.13
2023-09-23T01:41:03.851Z,608.94
2023-09-23T01:41:13.786Z,608.72
2023-09-23T01:41:23.715Z,608.94
2023-09-23T01:41:33.712Z,609.15
2023-09-23T01:41:43.720Z,608.78
2023-09-23T01:41:53.728Z,608.64
2023-09-23T01:42:03.714Z,608.58
2023-09-23T01:42:13.722Z,608.42
2023-09-23T01:42:23.715Z,608.56
2023-09-23T01:42:33.730Z,608.56
2023-09-23T01:42:53.725Z,608.61
2023-09-23T01:43:03.723Z,608.41
2023-09-23T01:43:13.723Z,608.53
2023-09-23T01:43:23.717Z,608.50
2023-09-23T01:43:33.738Z,608.61
2023-09-23T01:43:45.970Z,608.77
2023-09-23T01:43:53.733Z,609.23
2023-09-23T01:44:03.780Z,609.01
2023-09-23T01:44:13.755Z,608.56
2023-09-23T01:44:23.774Z,608.21
2023-09-23T01:44:33.730Z,608.58
2023-09-23T01:44:43.726Z,608.67
2023-09-23T01:44:53.725Z,608.29
2023-09-23T01:45:03.741Z,608.10
2023-09-23T01:45:13.731Z,608.47
2023-09-23T01:45:23.745Z,608.55
2023-09-23T01:45:33.804Z,608.83
2023-09-23T01:45:43.755Z,608.76
2023-09-23T01:45:53.727Z,608.55
2023-09-23T01:46:03.752Z,608.40
2023-09-23T01:46:13.731Z,608.17
2023-09-23T01:46:23.787Z,608.02
2023-09-23T01:46:33.770Z,608.18
2023-09-23T01:46:43.809Z,608.46
2023-09-23T01:46:53.822Z,608.34
2023-09-23T01:47:03.781Z,608.20
2023-09-23T01:47:13.850Z,608.51
2023-09-23T01:47:23.782Z,608.53
2023-09-23T01:47:33.943Z,608.48
2023-09-23T01:47:53.790Z,608.13
2023-09-23T01:48:03.789Z,608.42
2023-09-23T01:48:13.773Z,608.23
2023-09-23T01:48:23.773Z,608.28
2023-09-23T01:48:33.764Z,608.11
2023-09-23T01:48:43.919Z,608.08
2023-09-23T01:48:53.746Z,608.10
2023-09-23T01:49:03.741Z,608.02
2023-09-23T01:49:13.751Z,608.09
2023-09-23T01:49:23.751Z,608.20
2023-09-23T01:49:33.741Z,608.42
2023-09-23T01:49:43.794Z,608.12
2023-09-23T01:49:53.754Z,608.17
2023-09-23T01:50:03.771Z,608.04
2023-09-23T01:50:23.743Z,608.06
2023-09-23T01:50:33.750Z,608.00
2023-09-23T01:50:43.747Z,607.98
2023-09-23T01:50:53.741Z,608.17
2023-09-23T01:51:03.749Z,607.80
2023-09-23T01:51:13.753Z,608.11
2023-09-23T01:51:23.761Z,607.71
2023-09-23T01:51:33.759Z,608.22
2023-09-23T01:51:43.754Z,608.84
2023-09-23T01:51:53.766Z,608.54
2023-09-23T01:52:03.754Z,608.17
2023-09-23T01:52:13.758Z,608.18
2023-09-23T01:52:33.754Z,608.26
2023-09-23T01:52:43.774Z,608.36
2023-09-23T01:52:53.780Z,608.40
2023-09-23T01:53:03.811Z,608.38
2023-09-23T01:53:13.802Z,608.34
2023-09-23T01:53:23.759Z,608.31
2023-09-23T01:53:33.761Z,608.45
2023-09-23T01:53:43.778Z,608.51
2023-09-23T01:53:53.763Z,608.41
2023-09-23T01:54:03.762Z,608.24
2023-09-23T01:54:13.770Z,608.25
2023-09-23T01:54:23.775Z,608.15
2023-09-23T01:54:33.769Z,608.02
2023-09-23T01:54:43.791Z,608.13
2023-09-23T01:55:03.786Z,608.12
2023-09-23T01:55:13.817Z,608.09
2023-09-23T01:55:23.771Z,608.09
2023-09-23T01:55:33.781Z,607.74
2023-09-23T01:55:43.886Z,607.86
2023-09-23T01:55:53.791Z,608.16
2023-09-23T01:56:03.815Z,608.22
2023-09-23T01:56:13.794Z,608.24
2023-09-23T01:56:23.772Z,608.15
2023-09-23T01:56:33.798Z,608.04
2023-09-23T01:56:43.783Z,608.05
2023-09-23T01:56:53.781Z,608.08
2023-09-23T01:57:03.787Z,607.96
2023-09-23T01:57:13.805Z,608.16
2023-09-23T01:57:23.778Z,608.12
2023-09-23T01:57:43.777Z,608.36
2023-09-23T01:57:53.801Z,608.36
2023-09-23T01:58:03.798Z,608.14
2023-09-23T01:58:13.799Z,608.20
2023-09-23T01:58:24.218Z,608.11
2023-09-23T01:58:33.782Z,608.27
2023-09-23T01:58:43.846Z,608.09
2023-09-23T01:58:53.802Z,607.98
2023-09-23T01:59:03.853Z,608.12
2023-09-23T01:59:13.841Z,608.11
2023-09-23T01:59:23.797Z,608.33
2023-09-23T01:59:33.778Z,608.40
2023-09-23T01:59:43.799Z,608.47
2023-09-23T01:59:53.784Z,608.33
2023-09-23T02:00:13.775Z,608.26
2023-09-23T02:00:23.802Z,608.18
2023-09-23T02:00:33.793Z,607.92
2023-09-23T02:00:43.797Z,608.45
2023-09-23T02:00:53.822Z,608.50
2023-09-23T02:01:03.808Z,608.30
2023-09-23T02:01:23.812Z,608.33
2023-09-23T02:01:33.800Z,608.59
2023-09-23T02:01:43.877Z,608.84
2023-09-23T02:01:53.815Z,608.93
2023-09-23T02:02:03.859Z,608.86
2023-09-23T02:02:13.870Z,609.23
2023-09-23T02:02:23.828Z,608.68
2023-09-23T02:02:33.912Z,608.80
2023-09-23T02:02:53.996Z,608.78
2023-09-23T02:03:03.851Z,608.96
2023-09-23T02:03:13.947Z,608.86
2023-09-23T02:03:23.868Z,609.18
2023-09-23T02:03:33.917Z,608.62
2023-09-23T02:03:44.006Z,608.71
2023-09-23T02:03:53.866Z,608.87
2023-09-23T02:04:13.797Z,608.91
2023-09-23T02:04:23.799Z,608.93
2023-09-23T02:04:33.804Z,608.83
2023-09-23T02:04:43.848Z,608.85
2023-09-23T02:04:53.869Z,608.80
2023-09-23T02:05:03.850Z,608.76
2023-09-23T02:05:13.813Z,608.91
2023-09-23T02:05:23.833Z,608.92
2023-09-23T02:05:33.812Z,608.77
2023-09-23T02:05:53.808Z,608.46
2023-09-23T02:06:03.812Z,608.53
2023-09-23T02:06:13.816Z,608.33
2023-09-23T02:06:23.807Z,608.78
2023-09-23T02:06:33.804Z,608.84
2023-09-23T02:06:43.803Z,609.06
2023-09-23T02:06:53.812Z,608.51
2023-09-23T02:07:03.845Z,608.71
2023-09-23T02:07:13.810Z,609.12
2023-09-23T02:07:23.819Z,609.06
2023-09-23T02:07:33.820Z,608.85
2023-09-23T02:07:43.914Z,608.80
2023-09-23T02:08:03.864Z,608.66
2023-09-23T02:08:13.839Z,608.74
2023-09-23T02:08:23.853Z,608.23
2023-09-23T02:08:33.811Z,609.31
2023-09-23T02:08:44.021Z,608.64
2023-09-23T02:08:53.815Z,608.86
2023-09-23T02:09:03.821Z,608.75
2023-09-23T02:09:13.819Z,608.95
2023-09-23T02:09:23.814Z,609.57
2023-09-23T02:09:33.823Z,609.36
2023-09-23T02:09:43.813Z,608.54
2023-09-23T02:09:53.818Z,608.53
2023-09-23T02:10:13.824Z,609.48
2023-09-23T02:10:23.822Z,608.53
2023-09-23T02:10:33.831Z,608.75
2023-09-23T02:10:43.877Z,608.92
2023-09-23T02:10:53.864Z,608.52
2023-09-23T02:11:03.866Z,608.55
2023-09-23T02:11:13.893Z,608.51
2023-09-23T02:11:23.828Z,608.01
2023-09-23T02:11:33.836Z,609.21
2023-09-23T02:11:43.830Z,608.85
2023-09-23T02:11:53.834Z,608.75
2023-09-23T02:12:03.828Z,608.99
2023-09-23T02:12:13.832Z,608.56
2023-09-23T02:12:23.830Z,608.39
2023-09-23T02:12:33.837Z,608.50
2023-09-23T02:12:43.831Z,608.35
2023-09-23T02:13:03.834Z,608.37
2023-09-23T02:13:13.847Z,608.61
2023-09-23T02:13:23.839Z,608.51
2023-09-23T02:13:33.835Z,608.49
2023-09-23T02:13:43.847Z,608.60
2023-09-23T02:13:53.868Z,608.85
2023-09-23T02:14:03.891Z,608.26